createdAt,value
2022-12-16T00:01:19.800Z,37.53
2022-12-16T00:03:55.996Z,30.03
2022-12-16T00:06:32.321Z,34.00
2022-12-16T00:09:03.145Z,40.00
2022-12-16T00:11:32.336Z,36.73
2022-12-16T00:13:59.158Z,25.77
2022-12-16T00:16:26.166Z,34.43
2022-12-16T00:18:53.172Z,27.73
2022-12-16T00:21:20.767Z,29.43
2022-12-16T00:23:47.873Z,35.10
2022-12-16T00:26:15.029Z,40.23
2022-12-16T00:28:43.850Z,40.17
2022-12-16T00:31:13.195Z,41.00
2022-12-16T00:33:44.066Z,39.53
2022-12-16T00:36:11.819Z,34.47
2022-12-16T00:38:39.848Z,36.97
2022-12-16T00:41:08.402Z,33.20
2022-12-16T00:43:35.620Z,43.57
2022-12-16T00:46:02.975Z,40.13
2022-12-16T00:48:29.915Z,39.73
2022-12-16T00:50:56.713Z,47.00
2022-12-16T00:53:25.192Z,32.77
2022-12-16T00:56:02.171Z,44.50
2022-12-16T00:58:29.064Z,44.03
2022-12-16T01:00:55.957Z,40.13
2022-12-16T01:03:23.163Z,40.20
2022-12-16T01:05:50.225Z,43.07
2022-12-16T01:08:17.638Z,38.87
2022-12-16T01:10:55.370Z,41.07
2022-12-16T01:13:24.547Z,33.37
2022-12-16T01:15:51.895Z,50.53
2022-12-16T01:18:19.509Z,29.63
2022-12-16T01:20:46.329Z,50.23
2022-12-16T01:23:13.182Z,72.77
2022-12-16T01:25:40.067Z,38.43
2022-12-16T01:28:06.950Z,55.47
2022-12-16T01:30:33.947Z,59.80
2022-12-16T01:33:02.898Z,41.17
2022-12-16T01:38:19.800Z,42.47
2022-12-16T01:40:46.649Z,34.70
2022-12-16T01:43:15.199Z,40.50
2022-12-16T01:45:42.296Z,42.73
2022-12-16T01:48:37.856Z,36.30
2022-12-16T01:51:32.854Z,40.20
2022-12-16T01:54:22.045Z,38.07
2022-12-16T01:56:57.061Z,41.50
2022-12-16T01:59:28.838Z,40.33
2022-12-16T02:01:56.498Z,40.67
2022-12-16T02:04:23.975Z,35.60
2022-12-16T02:06:51.877Z,38.10
2022-12-16T02:09:19.602Z,40.83
2022-12-16T02:12:18.039Z,40.37
2022-12-16T02:15:20.055Z,37.70
2022-12-16T02:18:18.985Z,39.67
2022-12-16T02:21:07.859Z,39.60
2022-12-16T02:24:21.393Z,37.83
2022-12-16T02:27:46.670Z,40.07
2022-12-16T02:30:27.839Z,41.27
2022-12-16T02:33:25.301Z,38.53
2022-12-16T02:36:30.475Z,40.47
2022-12-16T02:39:08.993Z,37.37
2022-12-16T02:42:00.327Z,39.80
2022-12-16T02:44:51.648Z,35.33
2022-12-16T02:47:19.650Z,29.97
2022-12-16T02:49:48.417Z,27.50
2022-12-16T02:52:19.823Z,30.20
2022-12-16T02:54:48.978Z,35.20
2022-12-16T02:57:40.781Z,35.07
2022-12-16T03:00:21.739Z,36.30
2022-12-16T03:03:02.693Z,39.50
2022-12-16T03:05:52.517Z,35.93
2022-12-16T03:08:34.315Z,40.13
2022-12-16T03:11:08.367Z,42.70
2022-12-16T03:13:49.654Z,40.90
2022-12-16T03:16:23.575Z,45.53
2022-12-16T03:18:57.732Z,24.90
2022-12-16T03:21:33.726Z,31.57
2022-12-16T03:24:08.694Z,40.03
2022-12-16T03:27:02.670Z,35.97
2022-12-16T03:30:07.684Z,30.40
2022-12-16T03:32:53.173Z,30.80
2022-12-16T03:35:31.164Z,30.57
2022-12-16T03:38:02.346Z,32.97
2022-12-16T03:40:31.481Z,29.77
2022-12-16T03:43:01.378Z,37.07
2022-12-16T03:45:38.433Z,36.00
2022-12-16T03:48:09.763Z,34.53
2022-12-16T03:50:38.569Z,40.13
2022-12-16T03:53:06.980Z,42.57
2022-12-16T03:55:34.180Z,45.07
2022-12-16T03:58:01.090Z,46.20
2022-12-16T04:00:27.946Z,37.03
2022-12-16T04:02:55.130Z,38.50
2022-12-16T04:05:22.970Z,40.00
2022-12-16T04:07:57.332Z,37.67
2022-12-16T04:10:45.852Z,29.70
2022-12-16T04:13:31.816Z,38.03
2022-12-16T04:16:17.579Z,41.13
2022-12-16T04:19:04.160Z,35.53
2022-12-16T04:21:49.849Z,43.93
2022-12-16T04:24:20.225Z,37.53
2022-12-16T04:27:10.485Z,39.90
2022-12-16T04:30:00.622Z,31.37
2022-12-16T04:32:48.127Z,32.63
2022-12-16T04:35:34.178Z,36.53
2022-12-16T04:38:19.654Z,39.87
2022-12-16T04:41:05.683Z,37.13
2022-12-16T04:43:58.404Z,42.67
2022-12-16T04:46:43.994Z,43.90
2022-12-16T04:49:30.039Z,32.47
2022-12-16T04:52:18.421Z,34.00
2022-12-16T04:55:03.638Z,26.70
2022-12-16T04:57:49.217Z,28.67
2022-12-16T05:00:37.311Z,40.20
2022-12-16T05:03:22.747Z,45.40
2022-12-16T05:06:08.139Z,33.70
2022-12-16T05:08:57.500Z,35.40
2022-12-16T05:11:42.815Z,38.27
2022-12-16T05:14:28.182Z,40.57
2022-12-16T05:17:14.197Z,34.07
2022-12-16T05:19:59.786Z,41.77
2022-12-16T05:22:45.730Z,36.57
2022-12-16T05:25:31.240Z,42.00
2022-12-16T05:28:16.584Z,38.43
2022-12-16T05:31:02.260Z,35.97
2022-12-16T05:33:47.942Z,37.57
2022-12-16T05:36:34.367Z,32.73
2022-12-16T05:39:19.616Z,29.13
2022-12-16T05:42:05.027Z,21.40
2022-12-16T05:44:54.599Z,30.73
2022-12-16T05:47:41.012Z,35.70
2022-12-16T05:50:27.301Z,34.27
2022-12-16T05:53:16.140Z,33.57
2022-12-16T05:56:01.790Z,24.53
2022-12-16T05:58:48.892Z,42.07
2022-12-16T06:01:38.270Z,34.90
2022-12-16T06:04:24.141Z,41.33
2022-12-16T06:07:09.436Z,45.10
2022-12-16T06:09:57.146Z,41.20
2022-12-16T06:12:45.732Z,37.60
2022-12-16T06:15:31.058Z,34.87
2022-12-16T06:18:16.581Z,29.30
2022-12-16T06:21:02.775Z,40.57
2022-12-16T06:23:48.076Z,32.90
2022-12-16T06:26:37.934Z,27.37
2022-12-16T06:29:23.440Z,17.57
2022-12-16T06:32:08.722Z,25.90
2022-12-16T06:34:54.608Z,32.03
2022-12-16T06:37:40.335Z,32.23
2022-12-16T06:40:27.017Z,31.03
2022-12-16T06:43:15.466Z,38.77
2022-12-16T06:46:01.160Z,26.77
2022-12-16T06:48:46.706Z,37.67
2022-12-16T06:51:34.745Z,40.33
2022-12-16T06:54:20.303Z,40.43
2022-12-16T06:57:16.543Z,37.57
2022-12-16T07:00:02.263Z,25.13
2022-12-16T07:02:48.184Z,36.53
2022-12-16T07:09:33.464Z,29.97
2022-12-16T07:12:19.314Z,24.60
2022-12-16T07:15:09.167Z,32.30
2022-12-16T07:17:54.865Z,34.87
2022-12-16T07:20:40.511Z,43.00
2022-12-16T07:23:25.964Z,32.10
2022-12-16T07:26:11.783Z,43.73
2022-12-16T07:28:57.475Z,49.47
2022-12-16T07:31:42.910Z,33.50
2022-12-16T07:34:28.769Z,27.47
2022-12-16T07:37:20.644Z,29.33
2022-12-16T07:40:05.776Z,40.87
2022-12-16T07:42:51.532Z,22.30
2022-12-16T07:45:44.811Z,26.50
2022-12-16T07:48:30.837Z,31.90
2022-12-16T07:51:16.356Z,40.97
2022-12-16T07:54:04.238Z,39.80
2022-12-16T07:56:49.903Z,26.40
2022-12-16T07:59:35.634Z,28.23
2022-12-16T08:02:21.861Z,28.77
2022-12-16T08:05:09.129Z,31.07
2022-12-16T08:07:58.457Z,36.50
2022-12-16T08:10:44.174Z,29.90
2022-12-16T08:13:29.848Z,23.83
2022-12-16T08:16:15.562Z,23.97
2022-12-16T08:19:10.541Z,29.13
2022-12-16T08:21:58.098Z,30.67
2022-12-16T08:24:46.977Z,35.37
2022-12-16T08:27:37.223Z,47.23
2022-12-16T08:30:23.613Z,50.67
2022-12-16T08:33:18.381Z,39.17
2022-12-16T08:36:06.387Z,39.30
2022-12-16T08:38:52.763Z,39.77
2022-12-16T08:41:38.646Z,44.70
2022-12-16T08:44:24.292Z,59.00
2022-12-16T08:47:10.054Z,74.37
2022-12-16T08:49:57.857Z,71.27
2022-12-16T08:52:47.836Z,59.17
2022-12-16T08:55:33.318Z,51.43
2022-12-16T08:58:18.722Z,35.00
2022-12-16T09:01:07.574Z,40.23
2022-12-16T09:03:55.352Z,30.07
2022-12-16T09:06:41.489Z,30.00
2022-12-16T09:09:28.873Z,32.57
2022-12-16T09:12:17.517Z,27.87
2022-12-16T09:15:03.138Z,26.50
2022-12-16T09:17:48.815Z,38.70
2022-12-16T09:20:34.977Z,26.10
2022-12-16T09:23:24.206Z,26.23
2022-12-16T09:26:10.090Z,27.33
2022-12-16T09:28:58.921Z,36.63
2022-12-16T09:31:44.280Z,34.60
2022-12-16T09:34:29.905Z,31.47
2022-12-16T09:37:22.244Z,27.47
2022-12-16T09:40:07.497Z,24.20
2022-12-16T09:43:30.887Z,33.53
2022-12-16T09:46:42.701Z,24.80
2022-12-16T09:50:00.768Z,28.03
2022-12-16T09:52:49.661Z,27.63
2022-12-16T09:56:12.058Z,26.33
2022-12-16T10:41:25.914Z,34.47
2022-12-16T10:44:16.227Z,31.83
2022-12-16T10:47:01.788Z,46.50
2022-12-16T10:49:52.308Z,33.97
2022-12-16T10:52:40.519Z,26.80
2022-12-16T10:56:20.959Z,31.37
2022-12-16T10:59:12.660Z,31.00
2022-12-16T11:01:58.716Z,28.20
2022-12-16T11:04:51.343Z,26.83
2022-12-16T11:07:59.328Z,33.87
2022-12-16T11:11:00.215Z,29.87
2022-12-16T11:13:57.386Z,30.53
2022-12-16T11:16:48.241Z,30.03
2022-12-16T11:19:46.565Z,24.67
2022-12-16T11:22:41.949Z,21.40
2022-12-16T11:25:38.734Z,25.37
2022-12-16T11:28:30.273Z,22.13
2022-12-16T11:31:23.713Z,21.10
2022-12-16T11:34:14.664Z,20.33
2022-12-16T11:37:03.033Z,19.27
2022-12-16T11:39:54.937Z,20.67
2022-12-16T11:42:46.539Z,19.37
2022-12-16T11:45:41.519Z,15.00
2022-12-16T11:49:14.575Z,17.90
2022-12-16T11:52:34.925Z,19.60
2022-12-16T11:56:04.443Z,24.10
2022-12-16T11:59:10.056Z,15.13
2022-12-16T12:02:29.784Z,18.77
2022-12-16T12:05:23.439Z,19.70
2022-12-16T12:08:34.094Z,15.43
2022-12-16T12:11:47.813Z,16.50
2022-12-16T12:15:04.001Z,13.27
2022-12-16T12:18:04.357Z,14.97
2022-12-16T12:21:20.603Z,17.07
2022-12-16T12:24:34.389Z,20.30
2022-12-16T12:27:51.389Z,18.17
2022-12-16T12:30:42.248Z,21.73
2022-12-16T12:33:49.360Z,22.17
2022-12-16T12:37:12.967Z,16.87
2022-12-16T12:40:22.662Z,18.03
2022-12-16T12:43:15.899Z,22.77
2022-12-16T12:46:30.893Z,28.93
2022-12-16T12:49:52.359Z,23.20
2022-12-16T12:53:26.421Z,25.10
2022-12-16T12:56:49.332Z,21.47
2022-12-16T13:00:33.138Z,18.80
2022-12-16T13:03:54.249Z,23.27
2022-12-16T13:06:43.496Z,21.83
2022-12-16T13:09:52.173Z,20.33
2022-12-16T13:12:44.859Z,19.33
2022-12-16T13:15:57.656Z,18.47
2022-12-16T13:18:50.555Z,19.80
2022-12-16T13:21:54.698Z,15.27
2022-12-16T13:24:41.942Z,18.50
2022-12-16T13:27:36.090Z,19.33
2022-12-16T13:30:41.322Z,20.30
2022-12-16T13:33:46.971Z,21.07
2022-12-16T13:36:36.652Z,18.47
2022-12-16T13:39:49.115Z,14.90
2022-12-16T13:43:31.404Z,17.80
2022-12-16T13:46:20.055Z,19.20
2022-12-16T13:49:05.301Z,15.90
2022-12-16T13:51:56.460Z,15.27
2022-12-16T13:55:10.597Z,20.70
2022-12-16T13:58:02.801Z,17.67
2022-12-16T14:00:55.509Z,17.90
2022-12-16T14:04:03.117Z,19.47
2022-12-16T14:06:53.603Z,21.93
2022-12-16T14:09:55.900Z,16.83
2022-12-16T14:13:49.936Z,16.53
2022-12-16T14:16:53.310Z,15.93
2022-12-16T14:20:01.905Z,21.77
2022-12-16T14:23:47.100Z,15.07
2022-12-16T14:26:24.381Z,17.43
2022-12-16T14:29:11.193Z,18.33
2022-12-16T14:32:00.595Z,19.50
2022-12-16T14:34:48.765Z,17.93
2022-12-16T14:37:57.003Z,22.07
2022-12-16T14:40:49.644Z,19.03
2022-12-16T14:43:42.774Z,19.20
2022-12-16T14:47:00.027Z,21.53
2022-12-16T14:49:48.269Z,23.17
2022-12-16T14:52:45.402Z,16.73
2022-12-16T14:55:39.055Z,16.00
2022-12-16T14:58:39.771Z,15.17
2022-12-16T15:01:40.128Z,16.60
2022-12-16T15:04:40.459Z,17.17
2022-12-16T15:07:34.777Z,16.23
2022-12-16T15:10:20.809Z,18.43
2022-12-16T15:13:08.262Z,18.43
2022-12-16T15:16:04.752Z,19.40
2022-12-16T15:19:05.104Z,19.07
2022-12-16T15:21:54.510Z,14.43
2022-12-16T15:24:54.640Z,18.00
2022-12-16T15:27:40.108Z,15.83
2022-12-16T15:31:03.511Z,24.43
2022-12-16T15:33:58.504Z,20.77
2022-12-16T15:36:54.547Z,22.47
2022-12-16T15:39:59.903Z,34.43
2022-12-16T15:42:51.168Z,32.97
2022-12-16T15:45:36.560Z,28.33
2022-12-16T15:48:38.287Z,48.53
2022-12-16T15:51:48.560Z,58.23
2022-12-16T15:54:39.041Z,28.70
2022-12-16T15:57:52.347Z,23.27
2022-12-16T16:00:48.252Z,24.40
2022-12-16T16:03:50.042Z,18.13
2022-12-16T16:06:42.202Z,23.50
2022-12-16T16:09:47.276Z,15.67
2022-12-16T16:12:39.271Z,7.53
2022-12-16T16:15:28.391Z,8.67
2022-12-16T16:18:19.496Z,11.60
2022-12-16T16:21:05.296Z,22.40
2022-12-16T16:23:51.322Z,18.73
2022-12-16T16:26:41.875Z,22.63
2022-12-16T16:29:35.771Z,29.17
2022-12-16T16:32:21.036Z,30.73
2022-12-16T16:35:09.345Z,82.63
2022-12-16T16:37:54.843Z,74.27
2022-12-16T16:40:57.644Z,60.30
2022-12-16T16:43:46.041Z,62.53
2022-12-16T16:46:55.821Z,42.67
2022-12-16T16:49:46.811Z,46.27
2022-12-16T16:52:40.261Z,43.80
2022-12-16T16:55:32.864Z,42.43
2022-12-16T16:58:18.378Z,34.40
2022-12-16T17:01:04.520Z,37.97
2022-12-16T17:03:51.972Z,38.53
2022-12-16T17:06:37.939Z,28.17
2022-12-16T17:09:27.736Z,27.73
2022-12-16T17:12:13.175Z,23.13
2022-12-16T17:14:58.756Z,22.80
2022-12-16T17:17:44.355Z,32.80
2022-12-16T17:20:35.577Z,42.73
2022-12-16T17:23:20.791Z,60.93
2022-12-16T17:26:06.101Z,92.00
2022-12-16T17:29:11.391Z,46.43
2022-12-16T17:31:57.092Z,48.87
2022-12-16T17:34:42.781Z,50.97
2022-12-16T17:37:28.569Z,43.97
2022-12-16T17:40:13.746Z,43.13
2022-12-16T17:42:59.086Z,46.47
2022-12-16T17:45:44.677Z,38.80
2022-12-16T17:48:29.982Z,45.73
2022-12-16T17:51:15.565Z,46.30
2022-12-16T17:54:21.635Z,36.83
2022-12-16T17:57:09.495Z,35.03
2022-12-16T17:59:58.463Z,44.37
2022-12-16T18:02:44.047Z,38.00
2022-12-16T18:05:37.689Z,40.53
2022-12-16T18:08:26.428Z,39.50
2022-12-16T18:11:13.926Z,36.93
2022-12-16T18:14:17.205Z,40.37
2022-12-16T18:17:04.114Z,57.50
2022-12-16T18:19:49.526Z,58.00
2022-12-16T18:22:35.778Z,66.20
2022-12-16T18:25:21.612Z,74.27
2022-12-16T18:28:10.141Z,102.53
2022-12-16T18:30:59.105Z,78.53
2022-12-16T18:33:44.659Z,78.50
2022-12-16T18:36:30.082Z,53.20
2022-12-16T18:39:15.566Z,33.10
2022-12-16T18:42:05.637Z,33.23
2022-12-16T18:44:54.868Z,62.13
2022-12-16T18:47:42.797Z,74.57
2022-12-16T18:50:32.789Z,73.93
2022-12-16T18:53:21.544Z,69.80
2022-12-16T18:56:07.202Z,78.03
2022-12-16T18:58:54.639Z,82.80
2022-12-16T19:01:40.191Z,97.73
2022-12-16T19:04:25.415Z,81.20
2022-12-16T19:07:11.103Z,43.33
2022-12-16T19:09:57.100Z,37.03
2022-12-16T19:12:42.331Z,43.10
2022-12-16T19:15:29.510Z,49.57
2022-12-16T19:18:14.718Z,54.87
2022-12-16T19:21:00.322Z,57.20
2022-12-16T19:23:48.880Z,50.67
2022-12-16T19:26:36.578Z,75.53
2022-12-16T19:29:21.875Z,33.43
2022-12-16T19:32:08.443Z,48.10
2022-12-16T19:34:58.337Z,58.13
2022-12-16T19:37:43.778Z,77.17
2022-12-16T19:40:30.048Z,82.93
2022-12-16T19:43:16.356Z,76.57
2022-12-16T19:46:01.939Z,57.17
2022-12-16T19:48:47.444Z,60.47
2022-12-16T19:51:33.255Z,75.87
2022-12-16T19:54:19.052Z,73.77
2022-12-16T19:57:04.288Z,61.67
2022-12-16T19:59:49.623Z,62.70
2022-12-16T20:02:35.452Z,69.93
2022-12-16T20:05:23.302Z,54.17
2022-12-16T20:08:09.439Z,69.83
2022-12-16T20:10:56.287Z,60.97
2022-12-16T20:13:43.938Z,66.70
2022-12-16T20:16:41.391Z,67.67
2022-12-16T20:19:26.960Z,61.33
2022-12-16T20:22:16.327Z,74.33
2022-12-16T20:25:02.366Z,78.00
2022-12-16T20:27:47.952Z,66.83
2022-12-16T20:30:33.610Z,57.67
2022-12-16T20:33:19.172Z,51.13
2022-12-16T20:36:18.496Z,48.00
2022-12-16T20:39:05.408Z,50.53
2022-12-16T20:41:51.766Z,50.17
2022-12-16T20:44:37.151Z,54.50
2022-12-16T20:47:22.520Z,49.20
2022-12-16T20:50:08.227Z,54.63
2022-12-16T20:52:54.898Z,48.77
2022-12-16T20:55:42.454Z,53.77
2022-12-16T20:58:27.964Z,58.03
2022-12-16T21:01:18.109Z,58.57
2022-12-16T21:04:04.016Z,48.73
2022-12-16T21:06:49.159Z,51.40
2022-12-16T21:09:34.487Z,52.27
2022-12-16T21:12:20.014Z,48.50
2022-12-16T21:15:05.493Z,49.20
2022-12-16T21:17:50.775Z,43.30
2022-12-16T21:20:37.290Z,38.23
2022-12-16T21:23:25.802Z,40.30
2022-12-16T21:26:11.329Z,40.07
2022-12-16T21:28:57.405Z,36.50
2022-12-16T21:31:43.088Z,44.73
2022-12-16T21:34:29.038Z,41.27
2022-12-16T21:37:14.680Z,39.50
2022-12-16T21:40:00.014Z,42.63
2022-12-16T21:42:45.431Z,44.87
2022-12-16T21:45:32.016Z,53.77
2022-12-16T21:48:18.360Z,68.57
2022-12-16T21:51:11.001Z,62.33
2022-12-16T21:53:56.866Z,58.37
2022-12-16T21:56:42.551Z,51.83
2022-12-16T21:59:28.160Z,48.23
2022-12-16T22:02:13.697Z,40.60
2022-12-16T22:04:59.453Z,43.23
2022-12-16T22:07:46.989Z,40.47
2022-12-16T22:10:32.493Z,44.53
2022-12-16T22:13:18.399Z,43.33
2022-12-16T22:16:17.670Z,53.50
2022-12-16T22:19:04.068Z,46.83
2022-12-16T22:21:50.916Z,51.27
2022-12-16T22:24:36.913Z,43.60
2022-12-16T22:27:22.538Z,46.43
2022-12-16T22:30:07.763Z,44.63
2022-12-16T22:32:53.101Z,44.37
2022-12-16T22:35:42.131Z,38.57
2022-12-16T22:38:27.670Z,43.87
2022-12-16T22:41:18.055Z,44.90
2022-12-16T22:44:04.736Z,43.40
2022-12-16T22:46:53.189Z,51.80
2022-12-16T22:49:42.877Z,39.80
2022-12-16T22:52:28.478Z,50.23
2022-12-16T22:55:14.080Z,47.67
2022-12-16T22:58:01.566Z,46.00
2022-12-16T23:00:47.189Z,49.37
2022-12-16T23:03:37.274Z,52.30
2022-12-16T23:06:26.791Z,51.40
2022-12-16T23:09:12.307Z,53.30
2022-12-16T23:12:00.203Z,47.20
2022-12-16T23:14:45.948Z,55.17
2022-12-16T23:17:31.496Z,54.73
2022-12-16T23:20:16.909Z,47.87
2022-12-16T23:23:02.438Z,51.67
2022-12-16T23:25:47.794Z,43.40
2022-12-16T23:28:33.510Z,37.70
2022-12-16T23:31:19.281Z,44.80
2022-12-16T23:34:05.173Z,40.63
2022-12-16T23:36:50.961Z,39.50
2022-12-16T23:39:38.875Z,36.53
2022-12-16T23:42:24.431Z,37.00
2022-12-16T23:45:09.815Z,35.53
2022-12-16T23:47:55.178Z,40.63
2022-12-16T23:50:41.733Z,41.03
2022-12-16T23:53:29.946Z,41.60
2022-12-16T23:56:18.604Z,36.63
2022-12-16T23:59:06.718Z,41.27
